sensor_id;sensor_type;location;lat;lon;timestamp;P1;durP1;ratioP1;P2;durP2;ratioP2
41261;SDS011;29629;52.532;13.352;2022-09-03T00:00:01;23.98;;;21.85;;
41261;SDS011;29629;52.532;13.352;2022-09-03T00:02:33;25.45;;;22.73;;
41261;SDS011;29629;52.532;13.352;2022-09-03T00:05:09;23.92;;;21.42;;
41261;SDS011;29629;52.532;13.352;2022-09-03T00:07:42;23.33;;;20.95;;
41261;SDS011;29629;52.532;13.352;2022-09-03T00:10:15;26.27;;;22.08;;
41261;SDS011;29629;52.532;13.352;2022-09-03T00:12:47;24.42;;;21.75;;
41261;SDS011;29629;52.532;13.352;2022-09-03T00:15:17;27.48;;;22.75;;
41261;SDS011;29629;52.532;13.352;2022-09-03T00:17:47;29.42;;;21.20;;
41261;SDS011;29629;52.532;13.352;2022-09-03T00:20:20;27.23;;;22.17;;
41261;SDS011;29629;52.532;13.352;2022-09-03T00:22:50;27.40;;;21.92;;
41261;SDS011;29629;52.532;13.352;2022-09-03T00:25:25;29.10;;;24.05;;
41261;SDS011;29629;52.532;13.352;2022-09-03T00:27:56;26.45;;;22.98;;
41261;SDS011;29629;52.532;13.352;2022-09-03T00:30:23;31.33;;;25.10;;
41261;SDS011;29629;52.532;13.352;2022-09-03T00:32:53;31.58;;;21.83;;
41261;SDS011;29629;52.532;13.352;2022-09-03T00:35:29;23.85;;;21.27;;
41261;SDS011;29629;52.532;13.352;2022-09-03T00:38:00;22.73;;;20.40;;
41261;SDS011;29629;52.532;13.352;2022-09-03T00:40:50;26.88;;;21.33;;
41261;SDS011;29629;52.532;13.352;2022-09-03T00:43:34;22.88;;;19.85;;
41261;SDS011;29629;52.532;13.352;2022-09-03T00:46:16;22.40;;;20.02;;
41261;SDS011;29629;52.532;13.352;2022-09-03T00:48:57;22.35;;;19.55;;
41261;SDS011;29629;52.532;13.352;2022-09-03T00:51:50;19.08;;;15.10;;
41261;SDS011;29629;52.532;13.352;2022-09-03T00:54:26;27.27;;;16.15;;
41261;SDS011;29629;52.532;13.352;2022-09-03T00:57:07;23.15;;;15.57;;
41261;SDS011;29629;52.532;13.352;2022-09-03T00:59:51;22.50;;;15.10;;
41261;SDS011;29629;52.532;13.352;2022-09-03T01:02:28;19.35;;;14.30;;
41261;SDS011;29629;52.532;13.352;2022-09-03T01:05:14;17.90;;;14.43;;
41261;SDS011;29629;52.532;13.352;2022-09-03T01:07:53;20.23;;;14.00;;
41261;SDS011;29629;52.532;13.352;2022-09-03T01:10:32;12.35;;;11.10;;
41261;SDS011;29629;52.532;13.352;2022-09-03T01:13:09;16.77;;;11.70;;
41261;SDS011;29629;52.532;13.352;2022-09-03T01:15:42;16.65;;;11.25;;
41261;SDS011;29629;52.532;13.352;2022-09-03T01:18:17;19.92;;;12.55;;
41261;SDS011;29629;52.532;13.352;2022-09-03T01:20:53;31.17;;;13.07;;
41261;SDS011;29629;52.532;13.352;2022-09-03T01:23:39;10.90;;;10.07;;
41261;SDS011;29629;52.532;13.352;2022-09-03T01:26:36;23.95;;;12.57;;
41261;SDS011;29629;52.532;13.352;2022-09-03T01:29:15;20.50;;;11.43;;
41261;SDS011;29629;52.532;13.352;2022-09-03T01:31:52;18.17;;;12.35;;
41261;SDS011;29629;52.532;13.352;2022-09-03T01:34:30;19.90;;;11.77;;
41261;SDS011;29629;52.532;13.352;2022-09-03T01:37:08;18.58;;;12.18;;
41261;SDS011;29629;52.532;13.352;2022-09-03T01:39:43;20.30;;;12.15;;
41261;SDS011;29629;52.532;13.352;2022-09-03T01:42:22;16.77;;;11.48;;
41261;SDS011;29629;52.532;13.352;2022-09-03T01:47:59;18.20;;;11.35;;
41261;SDS011;29629;52.532;13.352;2022-09-03T01:50:37;16.13;;;11.57;;
41261;SDS011;29629;52.532;13.352;2022-09-03T01:53:11;19.65;;;12.73;;
41261;SDS011;29629;52.532;13.352;2022-09-03T01:55:53;20.02;;;12.98;;
41261;SDS011;29629;52.532;13.352;2022-09-03T01:58:30;21.27;;;14.25;;
41261;SDS011;29629;52.532;13.352;2022-09-03T02:01:07;23.42;;;14.05;;
41261;SDS011;29629;52.532;13.352;2022-09-03T02:03:40;17.05;;;12.52;;
41261;SDS011;29629;52.532;13.352;2022-09-03T02:06:09;12.02;;;10.68;;
41261;SDS011;29629;52.532;13.352;2022-09-03T02:08:37;21.27;;;12.15;;
41261;SDS011;29629;52.532;13.352;2022-09-03T02:11:06;22.38;;;12.43;;
41261;SDS011;29629;52.532;13.352;2022-09-03T02:13:35;15.45;;;10.23;;
41261;SDS011;29629;52.532;13.352;2022-09-03T02:16:08;19.83;;;13.18;;
41261;SDS011;29629;52.532;13.352;2022-09-03T02:18:39;17.08;;;11.48;;
41261;SDS011;29629;52.532;13.352;2022-09-03T02:21:10;18.38;;;11.98;;
41261;SDS011;29629;52.532;13.352;2022-09-03T02:23:40;19.45;;;11.18;;
41261;SDS011;29629;52.532;13.352;2022-09-03T02:26:08;24.80;;;12.30;;
41261;SDS011;29629;52.532;13.352;2022-09-03T02:28:37;17.67;;;11.77;;
41261;SDS011;29629;52.532;13.352;2022-09-03T02:31:04;21.88;;;12.55;;
41261;SDS011;29629;52.532;13.352;2022-09-03T02:33:34;16.80;;;11.48;;
41261;SDS011;29629;52.532;13.352;2022-09-03T02:36:04;17.05;;;12.27;;
41261;SDS011;29629;52.532;13.352;2022-09-03T02:38:36;18.75;;;12.52;;
41261;SDS011;29629;52.532;13.352;2022-09-03T02:41:03;24.42;;;13.27;;
41261;SDS011;29629;52.532;13.352;2022-09-03T02:43:31;19.13;;;12.60;;
41261;SDS011;29629;52.532;13.352;2022-09-03T02:46:06;23.25;;;15.02;;
41261;SDS011;29629;52.532;13.352;2022-09-03T02:48:39;32.22;;;15.45;;
41261;SDS011;29629;52.532;13.352;2022-09-03T02:51:06;23.70;;;13.98;;
41261;SDS011;29629;52.532;13.352;2022-09-03T02:53:33;18.08;;;13.80;;
41261;SDS011;29629;52.532;13.352;2022-09-03T02:56:00;18.10;;;13.65;;
41261;SDS011;29629;52.532;13.352;2022-09-03T02:58:27;19.55;;;13.80;;
41261;SDS011;29629;52.532;13.352;2022-09-03T03:00:55;18.55;;;13.60;;
41261;SDS011;29629;52.532;13.352;2022-09-03T03:03:24;12.60;;;11.50;;
41261;SDS011;29629;52.532;13.352;2022-09-03T03:05:51;20.15;;;13.50;;
41261;SDS011;29629;52.532;13.352;2022-09-03T03:08:20;13.30;;;12.25;;
41261;SDS011;29629;52.532;13.352;2022-09-03T03:10:52;15.45;;;12.88;;
41261;SDS011;29629;52.532;13.352;2022-09-03T03:13:20;19.27;;;14.52;;
41261;SDS011;29629;52.532;13.352;2022-09-03T03:15:48;16.65;;;13.23;;
41261;SDS011;29629;52.532;13.352;2022-09-03T03:18:14;17.35;;;12.13;;
41261;SDS011;29629;52.532;13.352;2022-09-03T03:20:43;14.98;;;12.23;;
41261;SDS011;29629;52.532;13.352;2022-09-03T03:23:10;21.80;;;13.93;;
41261;SDS011;29629;52.532;13.352;2022-09-03T03:25:37;17.73;;;14.55;;
41261;SDS011;29629;52.532;13.352;2022-09-03T03:28:05;16.30;;;14.18;;
41261;SDS011;29629;52.532;13.352;2022-09-03T03:30:33;21.38;;;14.82;;
41261;SDS011;29629;52.532;13.352;2022-09-03T03:33:02;30.13;;;16.80;;
41261;SDS011;29629;52.532;13.352;2022-09-03T03:35:30;20.33;;;15.07;;
41261;SDS011;29629;52.532;13.352;2022-09-03T03:37:58;14.45;;;13.20;;
41261;SDS011;29629;52.532;13.352;2022-09-03T03:40:25;22.00;;;16.10;;
41261;SDS011;29629;52.532;13.352;2022-09-03T03:42:52;24.42;;;16.00;;
41261;SDS011;29629;52.532;13.352;2022-09-03T03:45:19;20.20;;;16.13;;
41261;SDS011;29629;52.532;13.352;2022-09-03T03:47:46;15.93;;;14.82;;
41261;SDS011;29629;52.532;13.352;2022-09-03T03:50:13;25.00;;;16.83;;
41261;SDS011;29629;52.532;13.352;2022-09-03T03:52:41;21.30;;;18.98;;
41261;SDS011;29629;52.532;13.352;2022-09-03T03:55:09;22.98;;;18.70;;
41261;SDS011;29629;52.532;13.352;2022-09-03T03:57:36;20.80;;;17.17;;
41261;SDS011;29629;52.532;13.352;2022-09-03T04:00:03;18.88;;;17.27;;
41261;SDS011;29629;52.532;13.352;2022-09-03T04:02:32;24.77;;;19.30;;
41261;SDS011;29629;52.532;13.352;2022-09-03T04:04:59;27.80;;;20.88;;
41261;SDS011;29629;52.532;13.352;2022-09-03T04:07:26;20.15;;;17.98;;
41261;SDS011;29629;52.532;13.352;2022-09-03T04:09:52;21.08;;;18.70;;
41261;SDS011;29629;52.532;13.352;2022-09-03T04:12:21;20.45;;;17.95;;
41261;SDS011;29629;52.532;13.352;2022-09-03T04:14:47;21.75;;;19.50;;
41261;SDS011;29629;52.532;13.352;2022-09-03T04:17:14;19.52;;;17.88;;
41261;SDS011;29629;52.532;13.352;2022-09-03T04:19:41;20.33;;;18.10;;
41261;SDS011;29629;52.532;13.352;2022-09-03T04:22:09;22.95;;;19.17;;
41261;SDS011;29629;52.532;13.352;2022-09-03T04:24:39;33.05;;;21.33;;
41261;SDS011;29629;52.532;13.352;2022-09-03T04:27:05;26.67;;;21.42;;
41261;SDS011;29629;52.532;13.352;2022-09-03T04:29:34;22.23;;;19.95;;
41261;SDS011;29629;52.532;13.352;2022-09-03T04:32:01;26.30;;;20.48;;
41261;SDS011;29629;52.532;13.352;2022-09-03T04:34:45;21.38;;;18.70;;
41261;SDS011;29629;52.532;13.352;2022-09-03T04:37:12;24.58;;;21.88;;
41261;SDS011;29629;52.532;13.352;2022-09-03T04:39:40;26.77;;;23.92;;
41261;SDS011;29629;52.532;13.352;2022-09-03T04:42:07;24.60;;;22.05;;
41261;SDS011;29629;52.532;13.352;2022-09-03T04:44:35;36.80;;;24.98;;
41261;SDS011;29629;52.532;13.352;2022-09-03T04:47:02;25.52;;;21.40;;
41261;SDS011;29629;52.532;13.352;2022-09-03T04:49:29;43.35;;;22.95;;
41261;SDS011;29629;52.532;13.352;2022-09-03T04:51:56;23.38;;;20.55;;
41261;SDS011;29629;52.532;13.352;2022-09-03T04:54:23;29.77;;;22.23;;
41261;SDS011;29629;52.532;13.352;2022-09-03T04:56:50;22.08;;;20.33;;
41261;SDS011;29629;52.532;13.352;2022-09-03T04:59:17;22.63;;;20.08;;
41261;SDS011;29629;52.532;13.352;2022-09-03T05:01:45;20.60;;;18.38;;
41261;SDS011;29629;52.532;13.352;2022-09-03T05:04:12;22.95;;;20.00;;
41261;SDS011;29629;52.532;13.352;2022-09-03T05:06:39;19.67;;;17.83;;
41261;SDS011;29629;52.532;13.352;2022-09-03T05:09:07;22.83;;;20.58;;
41261;SDS011;29629;52.532;13.352;2022-09-03T05:11:34;24.40;;;21.73;;
41261;SDS011;29629;52.532;13.352;2022-09-03T05:14:01;21.95;;;19.52;;
41261;SDS011;29629;52.532;13.352;2022-09-03T05:16:29;23.50;;;18.05;;
41261;SDS011;29629;52.532;13.352;2022-09-03T05:18:58;22.80;;;20.27;;
41261;SDS011;29629;52.532;13.352;2022-09-03T05:21:25;23.77;;;18.85;;
41261;SDS011;29629;52.532;13.352;2022-09-03T05:23:53;23.77;;;20.65;;
41261;SDS011;29629;52.532;13.352;2022-09-03T05:26:20;22.88;;;19.98;;
41261;SDS011;29629;52.532;13.352;2022-09-03T05:28:51;19.52;;;18.15;;
41261;SDS011;29629;52.532;13.352;2022-09-03T05:31:20;23.83;;;21.35;;
41261;SDS011;29629;52.532;13.352;2022-09-03T05:33:48;26.92;;;23.48;;
41261;SDS011;29629;52.532;13.352;2022-09-03T05:36:18;23.80;;;21.38;;
41261;SDS011;29629;52.532;13.352;2022-09-03T05:38:47;26.25;;;23.63;;
41261;SDS011;29629;52.532;13.352;2022-09-03T05:41:15;25.48;;;22.77;;
41261;SDS011;29629;52.532;13.352;2022-09-03T05:43:43;27.00;;;24.27;;
41261;SDS011;29629;52.532;13.352;2022-09-03T05:46:10;25.65;;;23.25;;
41261;SDS011;29629;52.532;13.352;2022-09-03T05:48:39;27.35;;;23.98;;
41261;SDS011;29629;52.532;13.352;2022-09-03T05:51:07;26.35;;;23.65;;
41261;SDS011;29629;52.532;13.352;2022-09-03T05:53:37;24.88;;;20.92;;
41261;SDS011;29629;52.532;13.352;2022-09-03T05:56:05;25.98;;;23.70;;
41261;SDS011;29629;52.532;13.352;2022-09-03T05:58:35;24.92;;;22.92;;
41261;SDS011;29629;52.532;13.352;2022-09-03T06:01:08;27.40;;;24.48;;
41261;SDS011;29629;52.532;13.352;2022-09-03T06:03:37;24.77;;;23.10;;
41261;SDS011;29629;52.532;13.352;2022-09-03T06:06:04;27.20;;;24.92;;
41261;SDS011;29629;52.532;13.352;2022-09-03T06:08:31;26.80;;;24.23;;
41261;SDS011;29629;52.532;13.352;2022-09-03T06:11:00;28.10;;;25.45;;
41261;SDS011;29629;52.532;13.352;2022-09-03T06:13:28;28.85;;;26.38;;
41261;SDS011;29629;52.532;13.352;2022-09-03T06:15:56;29.35;;;27.00;;
41261;SDS011;29629;52.532;13.352;2022-09-03T06:18:24;28.67;;;26.15;;
41261;SDS011;29629;52.532;13.352;2022-09-03T06:20:52;23.92;;;21.98;;
41261;SDS011;29629;52.532;13.352;2022-09-03T06:23:20;29.40;;;26.48;;
41261;SDS011;29629;52.532;13.352;2022-09-03T06:25:46;27.70;;;25.17;;
41261;SDS011;29629;52.532;13.352;2022-09-03T06:28:15;26.00;;;23.80;;
41261;SDS011;29629;52.532;13.352;2022-09-03T06:30:41;27.33;;;24.58;;
41261;SDS011;29629;52.532;13.352;2022-09-03T06:33:08;28.77;;;25.42;;
41261;SDS011;29629;52.532;13.352;2022-09-03T06:35:38;29.77;;;27.05;;
41261;SDS011;29629;52.532;13.352;2022-09-03T06:38:06;27.67;;;25.63;;
41261;SDS011;29629;52.532;13.352;2022-09-03T06:40:36;29.35;;;26.80;;
41261;SDS011;29629;52.532;13.352;2022-09-03T06:43:03;28.05;;;25.45;;
41261;SDS011;29629;52.532;13.352;2022-09-03T06:45:31;27.52;;;25.60;;
41261;SDS011;29629;52.532;13.352;2022-09-03T06:47:58;30.85;;;28.13;;
41261;SDS011;29629;52.532;13.352;2022-09-03T06:50:25;45.08;;;32.80;;
41261;SDS011;29629;52.532;13.352;2022-09-03T06:52:52;31.48;;;28.80;;
41261;SDS011;29629;52.532;13.352;2022-09-03T06:55:19;32.70;;;29.55;;
41261;SDS011;29629;52.532;13.352;2022-09-03T06:57:47;30.10;;;27.70;;
41261;SDS011;29629;52.532;13.352;2022-09-03T07:00:15;28.50;;;26.90;;
41261;SDS011;29629;52.532;13.352;2022-09-03T07:02:44;29.95;;;27.83;;
41261;SDS011;29629;52.532;13.352;2022-09-03T07:05:12;33.63;;;30.70;;
41261;SDS011;29629;52.532;13.352;2022-09-03T07:07:41;33.95;;;31.75;;
41261;SDS011;29629;52.532;13.352;2022-09-03T07:10:20;33.45;;;30.50;;
41261;SDS011;29629;52.532;13.352;2022-09-03T07:12:48;33.63;;;31.15;;
41261;SDS011;29629;52.532;13.352;2022-09-03T07:15:16;34.78;;;31.77;;
41261;SDS011;29629;52.532;13.352;2022-09-03T07:17:46;32.55;;;30.27;;
41261;SDS011;29629;52.532;13.352;2022-09-03T07:20:15;36.08;;;33.15;;
41261;SDS011;29629;52.532;13.352;2022-09-03T07:22:42;38.55;;;35.53;;
41261;SDS011;29629;52.532;13.352;2022-09-03T07:25:09;35.33;;;32.13;;
41261;SDS011;29629;52.532;13.352;2022-09-03T07:27:36;28.92;;;26.45;;
41261;SDS011;29629;52.532;13.352;2022-09-03T07:30:11;29.00;;;26.52;;
41261;SDS011;29629;52.532;13.352;2022-09-03T07:32:39;27.77;;;25.50;;
41261;SDS011;29629;52.532;13.352;2022-09-03T07:35:08;40.08;;;30.80;;
41261;SDS011;29629;52.532;13.352;2022-09-03T07:37:35;31.90;;;29.60;;
41261;SDS011;29629;52.532;13.352;2022-09-03T07:40:06;32.42;;;30.08;;
41261;SDS011;29629;52.532;13.352;2022-09-03T07:42:34;32.20;;;29.67;;
41261;SDS011;29629;52.532;13.352;2022-09-03T07:45:03;27.10;;;24.48;;
41261;SDS011;29629;52.532;13.352;2022-09-03T07:47:34;27.67;;;25.25;;
41261;SDS011;29629;52.532;13.352;2022-09-03T07:50:02;30.60;;;27.90;;
41261;SDS011;29629;52.532;13.352;2022-09-03T07:52:31;25.15;;;23.17;;
41261;SDS011;29629;52.532;13.352;2022-09-03T07:54:59;23.63;;;21.40;;
41261;SDS011;29629;52.532;13.352;2022-09-03T07:57:27;24.08;;;22.08;;
41261;SDS011;29629;52.532;13.352;2022-09-03T07:59:54;28.40;;;26.40;;
41261;SDS011;29629;52.532;13.352;2022-09-03T08:02:22;27.55;;;25.25;;
41261;SDS011;29629;52.532;13.352;2022-09-03T08:04:49;24.67;;;22.33;;
41261;SDS011;29629;52.532;13.352;2022-09-03T08:07:16;26.80;;;24.15;;
41261;SDS011;29629;52.532;13.352;2022-09-03T08:09:44;25.70;;;23.25;;
41261;SDS011;29629;52.532;13.352;2022-09-03T08:12:12;26.77;;;23.98;;
41261;SDS011;29629;52.532;13.352;2022-09-03T08:14:38;38.38;;;26.98;;
41261;SDS011;29629;52.532;13.352;2022-09-03T08:17:05;25.30;;;22.95;;
41261;SDS011;29629;52.532;13.352;2022-09-03T08:19:32;28.67;;;26.08;;
41261;SDS011;29629;52.532;13.352;2022-09-03T08:21:59;31.13;;;28.42;;
41261;SDS011;29629;52.532;13.352;2022-09-03T08:24:26;29.85;;;24.83;;
41261;SDS011;29629;52.532;13.352;2022-09-03T08:26:54;21.83;;;19.80;;
41261;SDS011;29629;52.532;13.352;2022-09-03T08:29:20;22.40;;;20.25;;
41261;SDS011;29629;52.532;13.352;2022-09-03T08:31:47;14.00;;;12.55;;
41261;SDS011;29629;52.532;13.352;2022-09-03T08:34:14;19.60;;;17.65;;
41261;SDS011;29629;52.532;13.352;2022-09-03T08:36:41;22.00;;;13.23;;
41261;SDS011;29629;52.532;13.352;2022-09-03T08:39:11;25.35;;;14.93;;
41261;SDS011;29629;52.532;13.352;2022-09-03T08:41:47;19.88;;;13.65;;
41261;SDS011;29629;52.532;13.352;2022-09-03T08:44:40;21.55;;;7.82;;
41261;SDS011;29629;52.532;13.352;2022-09-03T08:47:12;16.00;;;6.70;;
41261;SDS011;29629;52.532;13.352;2022-09-03T08:49:44;16.25;;;4.40;;
41261;SDS011;29629;52.532;13.352;2022-09-03T08:52:18;11.52;;;4.25;;
41261;SDS011;29629;52.532;13.352;2022-09-03T08:54:50;14.65;;;5.00;;
41261;SDS011;29629;52.532;13.352;2022-09-03T08:57:22;15.85;;;5.97;;
41261;SDS011;29629;52.532;13.352;2022-09-03T08:59:53;11.82;;;6.85;;
41261;SDS011;29629;52.532;13.352;2022-09-03T09:02:24;16.55;;;6.93;;
41261;SDS011;29629;52.532;13.352;2022-09-03T09:04:59;19.27;;;7.15;;
41261;SDS011;29629;52.532;13.352;2022-09-03T09:07:31;21.23;;;9.88;;
41261;SDS011;29629;52.532;13.352;2022-09-03T09:10:08;14.35;;;8.30;;
41261;SDS011;29629;52.532;13.352;2022-09-03T09:12:44;14.27;;;8.18;;
41261;SDS011;29629;52.532;13.352;2022-09-03T09:15:18;16.00;;;7.88;;
41261;SDS011;29629;52.532;13.352;2022-09-03T09:17:59;10.82;;;8.20;;
41261;SDS011;29629;52.532;13.352;2022-09-03T09:20:38;15.05;;;11.02;;
41261;SDS011;29629;52.532;13.352;2022-09-03T09:23:12;13.18;;;11.73;;
41261;SDS011;29629;52.532;13.352;2022-09-03T09:25:43;17.08;;;11.65;;
41261;SDS011;29629;52.532;13.352;2022-09-03T09:28:16;13.10;;;11.32;;
41261;SDS011;29629;52.532;13.352;2022-09-03T09:30:45;12.73;;;11.10;;
41261;SDS011;29629;52.532;13.352;2022-09-03T09:33:13;13.13;;;11.10;;
41261;SDS011;29629;52.532;13.352;2022-09-03T09:35:40;11.90;;;10.55;;
41261;SDS011;29629;52.532;13.352;2022-09-03T09:38:07;14.38;;;10.73;;
41261;SDS011;29629;52.532;13.352;2022-09-03T09:40:35;19.98;;;11.68;;
41261;SDS011;29629;52.532;13.352;2022-09-03T09:43:06;11.98;;;10.50;;
41261;SDS011;29629;52.532;13.352;2022-09-03T09:45:37;11.27;;;10.45;;
41261;SDS011;29629;52.532;13.352;2022-09-03T09:48:07;14.38;;;11.57;;
41261;SDS011;29629;52.532;13.352;2022-09-03T09:50:38;13.02;;;10.82;;
41261;SDS011;29629;52.532;13.352;2022-09-03T09:53:06;12.48;;;9.93;;
41261;SDS011;29629;52.532;13.352;2022-09-03T09:55:48;12.95;;;10.35;;
41261;SDS011;29629;52.532;13.352;2022-09-03T09:58:17;11.55;;;9.98;;
41261;SDS011;29629;52.532;13.352;2022-09-03T10:01:03;22.55;;;13.77;;
41261;SDS011;29629;52.532;13.352;2022-09-03T10:03:39;21.42;;;12.75;;
41261;SDS011;29629;52.532;13.352;2022-09-03T10:06:13;12.20;;;10.77;;
41261;SDS011;29629;52.532;13.352;2022-09-03T10:09:06;15.25;;;10.98;;
41261;SDS011;29629;52.532;13.352;2022-09-03T10:11:34;14.88;;;11.02;;
41261;SDS011;29629;52.532;13.352;2022-09-03T10:14:03;10.52;;;9.65;;
41261;SDS011;29629;52.532;13.352;2022-09-03T10:16:38;12.80;;;10.45;;
41261;SDS011;29629;52.532;13.352;2022-09-03T10:19:15;12.05;;;10.70;;
41261;SDS011;29629;52.532;13.352;2022-09-03T10:21:45;14.32;;;11.75;;
41261;SDS011;29629;52.532;13.352;2022-09-03T10:24:24;16.50;;;11.90;;
41261;SDS011;29629;52.532;13.352;2022-09-03T10:26:56;13.05;;;10.70;;
41261;SDS011;29629;52.532;13.352;2022-09-03T10:29:23;12.48;;;10.68;;
41261;SDS011;29629;52.532;13.352;2022-09-03T10:32:06;15.80;;;10.95;;
41261;SDS011;29629;52.532;13.352;2022-09-03T10:34:48;14.07;;;11.20;;
41261;SDS011;29629;52.532;13.352;2022-09-03T10:37:25;14.38;;;10.80;;
41261;SDS011;29629;52.532;13.352;2022-09-03T10:40:05;15.20;;;10.13;;
41261;SDS011;29629;52.532;13.352;2022-09-03T10:42:43;10.65;;;8.57;;
41261;SDS011;29629;52.532;13.352;2022-09-03T10:45:17;12.82;;;8.00;;
41261;SDS011;29629;52.532;13.352;2022-09-03T10:48:00;19.27;;;8.65;;
41261;SDS011;29629;52.532;13.352;2022-09-03T10:50:43;13.70;;;7.18;;
41261;SDS011;29629;52.532;13.352;2022-09-03T10:53:17;15.95;;;6.57;;
41261;SDS011;29629;52.532;13.352;2022-09-03T10:55:55;12.13;;;5.15;;
41261;SDS011;29629;52.532;13.352;2022-09-03T10:58:33;8.75;;;4.00;;
41261;SDS011;29629;52.532;13.352;2022-09-03T11:01:16;18.35;;;4.18;;
41261;SDS011;29629;52.532;13.352;2022-09-03T11:03:51;13.90;;;3.80;;
41261;SDS011;29629;52.532;13.352;2022-09-03T11:06:33;17.80;;;12.65;;
41261;SDS011;29629;52.532;13.352;2022-09-03T11:09:09;37.15;;;34.25;;
41261;SDS011;29629;52.532;13.352;2022-09-03T11:11:41;25.83;;;23.47;;
41261;SDS011;29629;52.532;13.352;2022-09-03T11:14:12;22.77;;;20.58;;
41261;SDS011;29629;52.532;13.352;2022-09-03T11:16:46;18.02;;;4.78;;
41261;SDS011;29629;52.532;13.352;2022-09-03T11:19:19;10.55;;;3.22;;
41261;SDS011;29629;52.532;13.352;2022-09-03T11:21:56;10.10;;;3.13;;
41261;SDS011;29629;52.532;13.352;2022-09-03T11:24:23;16.45;;;3.83;;
41261;SDS011;29629;52.532;13.352;2022-09-03T11:27:06;4.07;;;2.55;;
41261;SDS011;29629;52.532;13.352;2022-09-03T11:29:45;21.02;;;4.85;;
41261;SDS011;29629;52.532;13.352;2022-09-03T11:32:19;14.50;;;4.20;;
41261;SDS011;29629;52.532;13.352;2022-09-03T11:34:51;14.40;;;4.13;;
41261;SDS011;29629;52.532;13.352;2022-09-03T11:37:20;15.75;;;4.40;;
41261;SDS011;29629;52.532;13.352;2022-09-03T11:39:52;17.75;;;4.72;;
41261;SDS011;29629;52.532;13.352;2022-09-03T11:42:29;12.25;;;2.95;;
41261;SDS011;29629;52.532;13.352;2022-09-03T11:44:59;11.65;;;3.15;;
41261;SDS011;29629;52.532;13.352;2022-09-03T11:47:40;14.30;;;3.67;;
41261;SDS011;29629;52.532;13.352;2022-09-03T11:50:17;13.85;;;4.97;;
41261;SDS011;29629;52.532;13.352;2022-09-03T11:52:46;4.30;;;2.40;;
41261;SDS011;29629;52.532;13.352;2022-09-03T11:55:29;4.82;;;2.45;;
41261;SDS011;29629;52.532;13.352;2022-09-03T11:57:58;13.90;;;4.00;;
41261;SDS011;29629;52.532;13.352;2022-09-03T12:00:36;18.00;;;3.67;;
41261;SDS011;29629;52.532;13.352;2022-09-03T12:03:04;12.95;;;3.05;;
41261;SDS011;29629;52.532;13.352;2022-09-03T12:05:34;12.70;;;4.18;;
41261;SDS011;29629;52.532;13.352;2022-09-03T12:08:15;13.07;;;5.68;;
41261;SDS011;29629;52.532;13.352;2022-09-03T12:11:05;28.25;;;9.63;;
41261;SDS011;29629;52.532;13.352;2022-09-03T12:13:47;16.45;;;6.18;;
41261;SDS011;29629;52.532;13.352;2022-09-03T12:19:26;17.13;;;15.52;;
41261;SDS011;29629;52.532;13.352;2022-09-03T12:22:02;22.38;;;20.35;;
41261;SDS011;29629;52.532;13.352;2022-09-03T12:24:29;32.13;;;28.77;;
41261;SDS011;29629;52.532;13.352;2022-09-03T12:26:59;33.22;;;30.88;;
41261;SDS011;29629;52.532;13.352;2022-09-03T12:29:28;22.85;;;21.42;;
41261;SDS011;29629;52.532;13.352;2022-09-03T12:32:04;31.35;;;29.00;;
41261;SDS011;29629;52.532;13.352;2022-09-03T12:34:32;36.22;;;32.40;;
41261;SDS011;29629;52.532;13.352;2022-09-03T12:36:59;26.52;;;24.38;;
41261;SDS011;29629;52.532;13.352;2022-09-03T12:39:28;21.40;;;19.25;;
41261;SDS011;29629;52.532;13.352;2022-09-03T12:41:59;18.35;;;16.45;;
41261;SDS011;29629;52.532;13.352;2022-09-03T12:44:28;15.52;;;12.27;;
41261;SDS011;29629;52.532;13.352;2022-09-03T12:47:00;15.45;;;13.40;;
41261;SDS011;29629;52.532;13.352;2022-09-03T12:49:34;26.67;;;24.27;;
41261;SDS011;29629;52.532;13.352;2022-09-03T12:52:04;32.05;;;29.63;;
41261;SDS011;29629;52.532;13.352;2022-09-03T12:54:36;29.15;;;25.98;;
41261;SDS011;29629;52.532;13.352;2022-09-03T12:57:08;18.23;;;14.63;;
41261;SDS011;29629;52.532;13.352;2022-09-03T12:59:36;15.75;;;3.67;;
41261;SDS011;29629;52.532;13.352;2022-09-03T13:02:05;11.35;;;3.30;;
41261;SDS011;29629;52.532;13.352;2022-09-03T13:04:41;24.52;;;5.45;;
41261;SDS011;29629;52.532;13.352;2022-09-03T13:07:10;4.63;;;2.00;;
41261;SDS011;29629;52.532;13.352;2022-09-03T13:09:46;7.22;;;2.10;;
41261;SDS011;29629;52.532;13.352;2022-09-03T13:12:20;17.17;;;4.55;;
41261;SDS011;29629;52.532;13.352;2022-09-03T13:14:49;13.52;;;7.07;;
41261;SDS011;29629;52.532;13.352;2022-09-03T13:17:25;14.00;;;7.22;;
41261;SDS011;29629;52.532;13.352;2022-09-03T13:20:07;18.25;;;8.40;;
41261;SDS011;29629;52.532;13.352;2022-09-03T13:22:49;10.17;;;8.20;;
41261;SDS011;29629;52.532;13.352;2022-09-03T13:25:35;21.23;;;10.57;;
41261;SDS011;29629;52.532;13.352;2022-09-03T13:28:14;17.88;;;16.42;;
41261;SDS011;29629;52.532;13.352;2022-09-03T13:30:52;23.20;;;13.88;;
41261;SDS011;29629;52.532;13.352;2022-09-03T13:33:23;22.27;;;16.30;;
41261;SDS011;29629;52.532;13.352;2022-09-03T13:35:58;15.70;;;12.52;;
41261;SDS011;29629;52.532;13.352;2022-09-03T13:38:29;15.15;;;5.53;;
41261;SDS011;29629;52.532;13.352;2022-09-03T13:41:05;10.88;;;3.05;;
41261;SDS011;29629;52.532;13.352;2022-09-03T13:43:45;5.82;;;5.38;;
41261;SDS011;29629;52.532;13.352;2022-09-03T13:46:19;19.98;;;16.42;;
41261;SDS011;29629;52.532;13.352;2022-09-03T13:48:55;17.77;;;10.40;;
41261;SDS011;29629;52.532;13.352;2022-09-03T13:51:46;16.33;;;15.43;;
41261;SDS011;29629;52.532;13.352;2022-09-03T13:54:17;31.40;;;28.98;;
41261;SDS011;29629;52.532;13.352;2022-09-03T13:56:52;25.42;;;23.15;;
41261;SDS011;29629;52.532;13.352;2022-09-03T13:59:25;21.27;;;19.13;;
41261;SDS011;29629;52.532;13.352;2022-09-03T14:02:01;15.50;;;13.07;;
41261;SDS011;29629;52.532;13.352;2022-09-03T14:04:39;31.58;;;13.48;;
41261;SDS011;29629;52.532;13.352;2022-09-03T14:07:14;23.85;;;13.20;;
41261;SDS011;29629;52.532;13.352;2022-09-03T14:09:50;19.10;;;17.88;;
41261;SDS011;29629;52.532;13.352;2022-09-03T14:12:35;19.52;;;17.83;;
41261;SDS011;29629;52.532;13.352;2022-09-03T14:15:09;26.85;;;24.77;;
41261;SDS011;29629;52.532;13.352;2022-09-03T14:17:45;28.50;;;26.35;;
41261;SDS011;29629;52.532;13.352;2022-09-03T14:20:18;33.42;;;30.45;;
41261;SDS011;29629;52.532;13.352;2022-09-03T14:22:50;41.17;;;38.30;;
41261;SDS011;29629;52.532;13.352;2022-09-03T14:25:22;44.83;;;41.78;;
41261;SDS011;29629;52.532;13.352;2022-09-03T14:27:52;48.47;;;45.30;;
41261;SDS011;29629;52.532;13.352;2022-09-03T14:30:24;45.58;;;42.67;;
41261;SDS011;29629;52.532;13.352;2022-09-03T14:33:01;42.75;;;39.80;;
41261;SDS011;29629;52.532;13.352;2022-09-03T14:35:37;37.08;;;34.30;;
41261;SDS011;29629;52.532;13.352;2022-09-03T14:38:23;36.67;;;34.30;;
41261;SDS011;29629;52.532;13.352;2022-09-03T14:41:09;36.55;;;33.78;;
41261;SDS011;29629;52.532;13.352;2022-09-03T14:47:10;36.75;;;34.40;;